createdAt,value
2017-07-05T00:01:49.588Z,64.33
2017-07-05T00:04:16.996Z,64.11
2017-07-05T00:06:44.417Z,64.33
2017-07-05T00:09:11.859Z,64.33
2017-07-05T00:11:39.260Z,64.76
2017-07-05T00:14:06.668Z,64.42
2017-07-05T00:16:34.091Z,63.99
2017-07-05T00:19:01.540Z,64.57
2017-07-05T00:21:28.993Z,64.47
2017-07-05T00:23:56.473Z,64.44
2017-07-05T00:26:23.998Z,64.42
2017-07-05T00:28:52.036Z,65.03
2017-07-05T00:31:19.480Z,65.42
2017-07-05T00:33:46.918Z,65.30
2017-07-05T00:36:14.340Z,65.07
2017-07-05T00:38:41.757Z,65.21
2017-07-05T00:41:09.227Z,65.29
2017-07-05T00:43:36.642Z,65.71
2017-07-05T00:46:04.085Z,66.14
2017-07-05T00:48:31.488Z,66.50
2017-07-05T00:50:58.914Z,66.59
2017-07-05T00:53:26.331Z,66.56
2017-07-05T00:55:53.814Z,66.74
2017-07-05T00:58:21.252Z,66.30
2017-07-05T01:00:48.686Z,66.02
2017-07-05T01:03:16.127Z,65.85
2017-07-05T01:05:43.582Z,65.70
2017-07-05T01:08:11.023Z,65.84
2017-07-05T01:10:38.428Z,65.91
2017-07-05T01:13:05.861Z,66.20
2017-07-05T01:15:33.306Z,66.90
2017-07-05T01:18:00.735Z,66.66
2017-07-05T01:20:28.167Z,66.52
2017-07-05T01:22:55.580Z,66.41
2017-07-05T01:25:22.999Z,65.83
2017-07-05T01:27:50.461Z,65.60
2017-07-05T01:30:17.866Z,65.86
2017-07-05T01:32:45.280Z,65.98
2017-07-05T01:35:12.705Z,65.99
2017-07-05T01:37:40.156Z,65.75
2017-07-05T01:40:07.604Z,65.76
2017-07-05T01:42:35.869Z,65.81
2017-07-05T01:45:03.327Z,65.92
2017-07-05T01:47:30.769Z,66.21
2017-07-05T01:49:58.194Z,66.55
2017-07-05T01:52:25.648Z,66.63
2017-07-05T01:54:53.108Z,66.78
2017-07-05T01:57:20.517Z,66.83
2017-07-05T01:59:47.949Z,67.06
2017-07-05T02:02:15.392Z,67.02
2017-07-05T02:04:42.879Z,67.19
2017-07-05T02:07:10.242Z,68.03
2017-07-05T02:09:37.692Z,67.82
2017-07-05T02:12:05.135Z,67.35
2017-07-05T02:14:32.545Z,67.33
2017-07-05T02:16:59.984Z,67.48
2017-07-05T02:19:27.497Z,67.47
2017-07-05T02:21:54.974Z,67.58
2017-07-05T02:24:22.415Z,67.67
2017-07-05T02:26:49.896Z,67.77
2017-07-05T02:29:17.356Z,67.88
2017-07-05T02:31:44.775Z,67.71
2017-07-05T02:34:12.281Z,67.69
2017-07-05T02:36:39.711Z,67.84
2017-07-05T02:39:07.163Z,68.21
2017-07-05T02:41:34.577Z,68.47
2017-07-05T02:44:01.995Z,68.03
2017-07-05T02:46:29.431Z,68.27
2017-07-05T02:48:56.856Z,68.20
2017-07-05T02:51:24.268Z,68.05
2017-07-05T02:53:51.754Z,68.01
2017-07-05T02:56:19.172Z,68.53
2017-07-05T02:58:46.609Z,68.37
2017-07-05T03:01:14.036Z,68.21
2017-07-05T03:03:41.463Z,68.44
2017-07-05T03:06:08.928Z,69.12
2017-07-05T03:08:36.345Z,69.60
2017-07-05T03:11:03.788Z,69.45
2017-07-05T03:13:31.229Z,69.70
2017-07-05T03:15:58.677Z,69.65
2017-07-05T03:18:26.083Z,69.81
2017-07-05T03:20:53.497Z,69.44
2017-07-05T03:23:20.931Z,69.20
2017-07-05T03:25:48.378Z,69.10
2017-07-05T03:28:15.919Z,68.83
2017-07-05T03:30:43.452Z,68.66
2017-07-05T03:33:10.864Z,68.93
2017-07-05T03:35:38.278Z,68.75
2017-07-05T03:38:05.712Z,68.73
2017-07-05T03:40:33.120Z,68.96
2017-07-05T03:43:00.603Z,68.65
2017-07-05T03:45:28.017Z,68.32
2017-07-05T03:47:55.548Z,68.09
2017-07-05T03:50:22.989Z,68.88
2017-07-05T03:52:50.466Z,69.05
2017-07-05T03:55:17.949Z,69.34
2017-07-05T03:57:45.371Z,69.21
2017-07-05T04:00:12.788Z,69.10
2017-07-05T04:02:40.222Z,68.71
2017-07-05T04:05:07.769Z,68.44
2017-07-05T04:07:35.411Z,68.99
2017-07-05T04:10:02.831Z,68.93
2017-07-05T04:12:30.285Z,68.90
2017-07-05T04:14:57.695Z,68.94
2017-07-05T04:17:25.110Z,68.93
2017-07-05T04:19:52.541Z,68.79
2017-07-05T04:22:19.963Z,68.97
2017-07-05T04:24:47.578Z,69.35
2017-07-05T04:27:15.002Z,69.47
2017-07-05T04:29:42.472Z,69.29
2017-07-05T04:32:09.925Z,69.04
2017-07-05T04:34:37.387Z,69.44
2017-07-05T04:37:04.792Z,69.62
2017-07-05T04:39:32.216Z,69.77
2017-07-05T04:41:59.701Z,69.65
2017-07-05T04:44:27.217Z,69.25
2017-07-05T04:46:54.627Z,69.41
2017-07-05T04:49:22.081Z,69.28
2017-07-05T04:51:49.532Z,69.53
2017-07-05T04:54:16.942Z,68.99
2017-07-05T04:56:44.398Z,68.99
2017-07-05T04:59:11.952Z,69.33
2017-07-05T05:01:39.465Z,69.80
2017-07-05T05:04:06.908Z,70.11
2017-07-05T05:06:34.329Z,70.08
2017-07-05T05:09:01.795Z,69.56
2017-07-05T05:11:29.206Z,69.85
2017-07-05T05:13:56.625Z,69.74
2017-07-05T05:16:24.059Z,69.22
2017-07-05T05:18:52.313Z,69.36
2017-07-05T05:21:19.718Z,69.57
2017-07-05T05:23:47.165Z,69.42
2017-07-05T05:26:14.578Z,68.93
2017-07-05T05:28:42.074Z,68.56
2017-07-05T05:31:09.528Z,68.20
2017-07-05T05:33:36.982Z,68.05
2017-07-05T05:36:04.405Z,67.42
2017-07-05T05:38:31.861Z,66.49
2017-07-05T05:40:59.293Z,66.31
2017-07-05T05:43:26.740Z,65.95
2017-07-05T05:45:54.172Z,65.60
2017-07-05T05:48:21.598Z,65.50
2017-07-05T05:50:49.156Z,65.64
2017-07-05T05:53:16.744Z,65.75
2017-07-05T05:55:44.176Z,65.28
2017-07-05T05:58:11.580Z,64.47
2017-07-05T06:00:39.006Z,64.66
2017-07-05T06:03:06.443Z,64.86
2017-07-05T06:05:33.941Z,63.97
2017-07-05T06:08:01.388Z,64.29
2017-07-05T06:10:28.795Z,64.00
2017-07-05T06:12:56.277Z,64.06
2017-07-05T06:15:23.728Z,63.79
2017-07-05T06:17:51.164Z,63.61
2017-07-05T06:20:18.598Z,63.10
2017-07-05T06:22:46.033Z,63.29
2017-07-05T06:25:13.487Z,63.02
2017-07-05T06:27:40.891Z,61.67
2017-07-05T06:30:08.337Z,61.11
2017-07-05T06:32:35.786Z,61.50
2017-07-05T06:35:03.223Z,60.12
2017-07-05T06:37:30.637Z,60.44
2017-07-05T06:39:58.048Z,60.19
2017-07-05T06:42:25.501Z,60.24
2017-07-05T06:44:52.972Z,60.72
2017-07-05T06:47:20.384Z,59.93
2017-07-05T06:49:47.812Z,59.52
2017-07-05T06:52:15.252Z,58.65
2017-07-05T06:54:42.696Z,59.12
2017-07-05T06:57:10.174Z,58.15
2017-07-05T06:59:37.599Z,57.55
2017-07-05T07:02:05.049Z,58.08
2017-07-05T07:04:32.464Z,58.00
2017-07-05T07:06:59.893Z,58.51
2017-07-05T07:09:27.340Z,58.21
2017-07-05T07:11:54.797Z,58.68
2017-07-05T07:14:22.261Z,58.77
2017-07-05T07:16:49.689Z,58.63
2017-07-05T07:19:17.113Z,58.89
2017-07-05T07:21:44.557Z,57.08
2017-07-05T07:24:11.987Z,57.69
2017-07-05T07:26:39.425Z,57.22
2017-07-05T07:29:06.845Z,57.31
2017-07-05T07:31:34.318Z,56.83
2017-07-05T07:34:01.768Z,58.27
2017-07-05T07:36:29.214Z,58.82
2017-07-05T07:38:56.669Z,56.41
2017-07-05T07:41:24.104Z,56.25
2017-07-05T07:43:51.509Z,57.36
2017-07-05T07:46:18.977Z,56.10
2017-07-05T07:48:46.402Z,55.14
2017-07-05T07:51:13.861Z,56.43
2017-07-05T07:53:41.317Z,56.69
2017-07-05T07:56:08.745Z,56.27
2017-07-05T07:58:36.207Z,55.31
2017-07-05T08:01:03.620Z,56.86
2017-07-05T08:03:31.039Z,56.43
2017-07-05T08:05:58.495Z,55.43
2017-07-05T08:08:25.897Z,55.44
2017-07-05T08:10:53.346Z,54.14
2017-07-05T08:13:20.760Z,53.49
2017-07-05T08:15:48.216Z,53.32
2017-07-05T08:18:15.672Z,52.23
2017-07-05T08:20:43.113Z,53.30
2017-07-05T08:23:10.596Z,51.68
2017-07-05T08:25:38.005Z,53.99
2017-07-05T08:28:05.460Z,52.17
2017-07-05T08:30:32.896Z,52.27
2017-07-05T08:33:00.349Z,50.27
2017-07-05T08:35:27.793Z,50.30
2017-07-05T08:37:55.228Z,49.72
2017-07-05T08:40:22.635Z,48.74
2017-07-05T08:42:50.073Z,48.49
2017-07-05T08:45:17.576Z,50.53
2017-07-05T08:47:45.014Z,48.26
2017-07-05T08:50:12.473Z,48.27
2017-07-05T08:52:40.041Z,47.82
2017-07-05T08:55:07.653Z,48.39
2017-07-05T08:57:35.206Z,46.46
2017-07-05T09:00:02.687Z,47.47
2017-07-05T09:02:30.151Z,45.82
2017-07-05T09:04:57.566Z,46.57
2017-07-05T09:07:24.975Z,45.70
2017-07-05T09:09:52.413Z,45.29
2017-07-05T09:12:19.871Z,45.44
2017-07-05T09:14:47.399Z,44.92
2017-07-05T09:17:15.165Z,44.82
2017-07-05T09:19:42.640Z,43.50
2017-07-05T09:22:10.210Z,43.43
2017-07-05T09:24:37.658Z,44.85
2017-07-05T09:27:05.093Z,44.70
2017-07-05T09:29:32.526Z,43.76
2017-07-05T09:31:59.928Z,42.85
2017-07-05T09:34:27.402Z,42.78
2017-07-05T09:36:54.831Z,43.59
2017-07-05T09:39:22.357Z,43.68
2017-07-05T09:41:49.860Z,42.13
2017-07-05T09:44:17.298Z,43.87
2017-07-05T09:46:44.732Z,44.18
2017-07-05T09:49:12.200Z,44.95
2017-07-05T09:51:39.632Z,43.77
2017-07-05T09:54:07.021Z,45.12
2017-07-05T09:56:34.465Z,43.20
2017-07-05T09:59:01.900Z,42.63
2017-07-05T10:01:29.353Z,44.47
2017-07-05T10:03:56.773Z,43.55
2017-07-05T10:06:24.219Z,42.76
2017-07-05T10:08:51.645Z,42.38
2017-07-05T10:11:19.053Z,41.83
2017-07-05T10:13:46.614Z,41.69
2017-07-05T10:16:14.160Z,41.70
2017-07-05T10:18:41.599Z,40.55
2017-07-05T10:21:09.092Z,39.72
2017-07-05T10:23:36.781Z,41.29
2017-07-05T10:26:04.229Z,39.78
2017-07-05T10:28:32.170Z,41.88
2017-07-05T10:30:59.800Z,43.16
2017-07-05T10:33:27.282Z,42.62
2017-07-05T10:35:54.782Z,39.09
2017-07-05T10:38:22.310Z,39.21
2017-07-05T10:40:49.740Z,41.04
2017-07-05T10:43:17.229Z,40.61
2017-07-05T10:45:44.653Z,40.80
2017-07-05T10:48:12.108Z,41.84
2017-07-05T10:50:39.568Z,40.09
2017-07-05T10:53:06.969Z,40.97
2017-07-05T10:55:34.497Z,40.82
2017-07-05T10:58:01.930Z,41.92
2017-07-05T11:00:29.333Z,40.85
2017-07-05T11:02:56.803Z,41.36
2017-07-05T11:05:24.315Z,39.54
2017-07-05T11:07:51.792Z,37.65
2017-07-05T11:10:19.228Z,39.27
2017-07-05T11:12:46.693Z,38.60
2017-07-05T11:15:14.095Z,38.59
2017-07-05T11:17:41.611Z,38.43
2017-07-05T11:20:09.054Z,38.56
2017-07-05T11:22:36.508Z,40.12
2017-07-05T11:25:03.972Z,37.15
2017-07-05T11:27:31.416Z,40.74
2017-07-05T11:29:58.849Z,38.65
2017-07-05T11:32:26.297Z,35.24
2017-07-05T11:34:53.720Z,37.42
2017-07-05T11:37:21.308Z,36.69
2017-07-05T11:39:48.723Z,36.33
2017-07-05T11:42:16.141Z,36.91
2017-07-05T11:44:43.588Z,36.40
2017-07-05T11:47:11.007Z,35.27
2017-07-05T11:49:38.439Z,36.41
2017-07-05T11:52:05.862Z,36.80
2017-07-05T11:54:33.289Z,37.67
2017-07-05T11:57:00.712Z,37.82
2017-07-05T11:59:28.180Z,38.28
2017-07-05T12:01:55.592Z,36.03
2017-07-05T12:04:23.013Z,35.93
2017-07-05T12:06:50.457Z,34.77
2017-07-05T12:09:17.868Z,34.65
2017-07-05T12:11:45.324Z,35.67
2017-07-05T12:14:12.738Z,38.31
2017-07-05T12:16:40.179Z,36.82
2017-07-05T12:19:07.619Z,37.29
2017-07-05T12:21:35.061Z,38.60
2017-07-05T12:24:02.474Z,36.88
2017-07-05T12:26:29.908Z,37.23
2017-07-05T12:28:57.353Z,36.62
2017-07-05T12:31:24.845Z,36.11
2017-07-05T12:33:52.254Z,36.09
2017-07-05T12:36:19.679Z,37.21
2017-07-05T12:38:47.155Z,35.93
2017-07-05T12:41:14.588Z,34.80
2017-07-05T12:43:42.048Z,33.94
2017-07-05T12:46:09.531Z,34.50
2017-07-05T12:48:37.057Z,35.65
2017-07-05T12:51:04.484Z,33.72
2017-07-05T12:53:31.997Z,32.21
2017-07-05T12:55:59.491Z,31.53
2017-07-05T12:58:26.931Z,28.30
2017-07-05T13:00:54.330Z,26.74
2017-07-05T13:03:21.755Z,25.81
2017-07-05T13:05:49.197Z,27.69
2017-07-05T13:08:16.629Z,30.46
2017-07-05T13:10:44.076Z,33.49
2017-07-05T13:13:11.493Z,33.40
2017-07-05T13:15:38.933Z,33.08
2017-07-05T13:18:06.430Z,31.54
2017-07-05T13:20:33.854Z,33.32
2017-07-05T13:23:01.353Z,33.20
2017-07-05T13:25:28.781Z,34.14
2017-07-05T13:27:56.196Z,33.40
2017-07-05T13:30:23.644Z,32.54
2017-07-05T13:32:51.072Z,31.68
2017-07-05T13:35:18.486Z,30.51
2017-07-05T13:37:45.952Z,31.83
2017-07-05T13:40:13.366Z,32.49
2017-07-05T13:42:40.805Z,34.38
2017-07-05T13:45:08.314Z,34.44
2017-07-05T13:47:35.735Z,35.09
2017-07-05T13:50:03.243Z,34.96
2017-07-05T13:57:50.076Z,33.99
2017-07-05T14:00:17.559Z,33.91
2017-07-05T14:02:44.980Z,32.61
2017-07-05T14:05:12.429Z,32.80
2017-07-05T14:07:39.976Z,32.86
2017-07-05T14:10:07.468Z,31.20
2017-07-05T14:12:34.931Z,28.95
2017-07-05T14:15:02.380Z,29.42
2017-07-05T14:17:29.870Z,29.09
2017-07-05T14:19:57.373Z,29.02
2017-07-05T14:22:24.832Z,29.92
2017-07-05T14:24:52.305Z,28.17
2017-07-05T14:27:19.774Z,28.53
2017-07-05T14:29:47.277Z,27.27
2017-07-05T14:32:15.072Z,28.36
2017-07-05T14:34:43.086Z,29.08
2017-07-05T14:37:10.619Z,27.37
2017-07-05T14:39:38.201Z,26.39
2017-07-05T14:42:05.627Z,26.48
2017-07-05T14:44:33.145Z,24.65
2017-07-05T14:47:00.665Z,26.32
2017-07-05T14:49:28.255Z,26.40
2017-07-05T14:51:55.781Z,25.10
2017-07-05T14:54:23.280Z,25.53
2017-07-05T14:56:50.752Z,25.75
2017-07-05T14:59:18.192Z,24.26
2017-07-05T15:01:45.605Z,25.35
2017-07-05T15:04:13.041Z,23.99
2017-07-05T15:06:40.479Z,24.54
2017-07-05T15:09:08.033Z,24.52
2017-07-05T15:11:36.271Z,24.17
2017-07-05T15:14:03.689Z,25.16
2017-07-05T15:16:31.140Z,24.54
2017-07-05T15:18:58.562Z,24.86
2017-07-05T15:21:25.968Z,24.38
2017-07-05T15:23:53.414Z,24.57
2017-07-05T15:26:20.932Z,24.62
2017-07-05T15:28:48.328Z,24.48
2017-07-05T15:31:15.808Z,24.89
2017-07-05T15:33:43.249Z,25.07
2017-07-05T15:36:11.316Z,24.80
2017-07-05T15:38:38.871Z,24.46
2017-07-05T15:41:07.025Z,24.00
2017-07-05T15:43:34.460Z,24.58
2017-07-05T15:46:02.945Z,24.41
2017-07-05T15:48:30.443Z,24.81
2017-07-05T15:50:57.886Z,25.11
2017-07-05T15:53:25.837Z,24.59
2017-07-05T15:55:53.344Z,26.12
2017-07-05T15:58:20.841Z,25.80
2017-07-05T16:00:48.340Z,26.63
2017-07-05T16:03:15.822Z,26.69
2017-07-05T16:05:43.249Z,26.91
2017-07-05T16:08:10.668Z,26.10
2017-07-05T16:10:38.127Z,26.49
2017-07-05T16:13:05.549Z,26.15
2017-07-05T16:15:33.146Z,26.00
2017-07-05T16:18:00.578Z,26.13
2017-07-05T16:20:28.029Z,26.30
2017-07-05T16:22:55.488Z,24.78
2017-07-05T16:25:22.993Z,25.81
2017-07-05T16:27:50.426Z,26.12
2017-07-05T16:30:17.849Z,26.56
2017-07-05T16:32:45.336Z,26.43
2017-07-05T16:35:12.880Z,25.93
2017-07-05T16:37:40.352Z,26.55
2017-07-05T16:40:07.776Z,27.02
2017-07-05T16:42:35.216Z,26.48
2017-07-05T16:45:02.650Z,27.80
2017-07-05T16:47:30.092Z,27.45
2017-07-05T16:49:57.492Z,27.52
2017-07-05T16:52:24.987Z,26.79
2017-07-05T16:54:52.568Z,27.60
2017-07-05T16:57:20.072Z,28.22
2017-07-05T16:59:47.500Z,28.17
2017-07-05T17:02:14.964Z,28.31
2017-07-05T17:04:43.005Z,28.96
2017-07-05T17:07:10.438Z,29.57
2017-07-05T17:09:37.864Z,30.15
2017-07-05T17:12:05.333Z,30.55
2017-07-05T17:14:32.779Z,29.32
2017-07-05T17:17:00.189Z,29.07
2017-07-05T17:19:27.656Z,28.90
2017-07-05T17:21:55.117Z,29.69
2017-07-05T17:24:22.517Z,29.01
2017-07-05T17:26:50.033Z,29.65
2017-07-05T17:29:17.508Z,28.75
2017-07-05T17:31:44.952Z,28.91
2017-07-05T17:34:12.841Z,28.92
2017-07-05T17:36:40.281Z,28.44
2017-07-05T17:39:07.733Z,28.68
2017-07-05T17:41:35.186Z,29.81
2017-07-05T17:44:02.635Z,30.25
2017-07-05T17:46:30.059Z,30.35
2017-07-05T17:48:57.475Z,30.29
2017-07-05T17:51:24.915Z,30.50
2017-07-05T17:53:52.328Z,30.89
2017-07-05T17:56:19.762Z,31.22
2017-07-05T17:58:47.225Z,30.91
2017-07-05T18:01:14.648Z,31.18
2017-07-05T18:03:42.118Z,31.49
2017-07-05T18:06:09.528Z,31.26
2017-07-05T18:08:36.966Z,31.52
2017-07-05T18:11:04.401Z,31.59
2017-07-05T18:13:31.861Z,31.46
2017-07-05T18:15:59.314Z,31.73
2017-07-05T18:18:26.727Z,32.32
2017-07-05T18:20:54.254Z,32.44
2017-07-05T18:23:21.706Z,32.82
2017-07-05T18:25:49.140Z,33.14
2017-07-05T18:28:16.564Z,33.46
2017-07-05T18:30:44.013Z,33.88
2017-07-05T18:33:11.440Z,34.24
2017-07-05T18:35:38.893Z,34.32
2017-07-05T18:38:06.340Z,34.71
2017-07-05T18:40:33.752Z,35.18
2017-07-05T18:43:01.214Z,35.31
2017-07-05T18:45:28.672Z,35.56
2017-07-05T18:47:56.069Z,35.76
2017-07-05T18:50:23.544Z,35.73
2017-07-05T18:52:50.981Z,35.81
2017-07-05T18:55:18.461Z,36.11
2017-07-05T18:57:45.945Z,36.42
2017-07-05T19:00:13.355Z,36.09
2017-07-05T19:02:40.819Z,36.35
2017-07-05T19:05:08.253Z,36.66
2017-07-05T19:07:35.732Z,36.99
2017-07-05T19:10:03.249Z,36.88
2017-07-05T19:12:30.665Z,37.39
2017-07-05T19:14:58.098Z,37.51
2017-07-05T19:17:25.537Z,37.82
2017-07-05T19:19:53.007Z,37.75
2017-07-05T19:22:20.424Z,38.01
2017-07-05T19:24:47.855Z,38.22
2017-07-05T19:27:15.259Z,39.13
2017-07-05T19:29:42.734Z,39.21
2017-07-05T19:32:10.301Z,39.84
2017-07-05T19:34:37.760Z,40.41
2017-07-05T19:37:05.240Z,40.85
2017-07-05T19:39:32.932Z,41.05
2017-07-05T19:42:00.364Z,40.67
2017-07-05T19:44:27.813Z,42.97
2017-07-05T19:46:55.293Z,43.21
2017-07-05T19:49:22.778Z,42.42
2017-07-05T19:51:50.234Z,43.05
2017-07-05T19:54:17.719Z,43.01
2017-07-05T19:56:45.280Z,43.58
2017-07-05T19:59:12.727Z,43.60
2017-07-05T20:01:40.181Z,43.94
2017-07-05T20:04:07.670Z,43.77
2017-07-05T20:06:35.139Z,43.96
2017-07-05T20:09:02.568Z,44.02
2017-07-05T20:11:29.993Z,44.17
2017-07-05T20:13:57.489Z,44.59
2017-07-05T20:16:24.913Z,44.89
2017-07-05T20:18:52.445Z,45.12
2017-07-05T20:21:19.869Z,45.34
2017-07-05T20:23:47.428Z,45.57
2017-07-05T20:26:14.896Z,45.64
2017-07-05T20:28:42.356Z,46.02
2017-07-05T20:31:09.794Z,46.03
2017-07-05T20:33:37.254Z,46.64
2017-07-05T20:36:04.748Z,46.82
2017-07-05T20:38:32.303Z,47.59
2017-07-05T20:40:59.754Z,47.80
2017-07-05T20:43:27.269Z,47.46
2017-07-05T20:45:54.708Z,47.38
2017-07-05T20:48:22.149Z,48.00
2017-07-05T20:50:49.569Z,48.46
2017-07-05T20:53:17.197Z,47.50
2017-07-05T20:55:44.657Z,46.96
2017-07-05T20:58:12.082Z,47.39
2017-07-05T21:00:39.723Z,46.97
2017-07-05T21:03:07.095Z,47.36
2017-07-05T21:05:34.532Z,48.02
2017-07-05T21:08:01.980Z,47.84
2017-07-05T21:10:29.389Z,48.15
2017-07-05T21:12:56.870Z,47.85
2017-07-05T21:15:24.295Z,48.98
2017-07-05T21:17:51.701Z,48.67
2017-07-05T21:20:19.214Z,49.25
2017-07-05T21:22:46.630Z,49.38
2017-07-05T21:25:14.071Z,49.79
2017-07-05T21:27:41.507Z,50.33
2017-07-05T21:30:08.977Z,50.22
2017-07-05T21:32:36.389Z,49.63
2017-07-05T21:35:03.816Z,50.29
2017-07-05T21:37:31.313Z,50.27
2017-07-05T21:39:58.723Z,50.16
2017-07-05T21:42:26.168Z,50.81
2017-07-05T21:44:53.589Z,51.50
2017-07-05T21:47:20.987Z,50.87
2017-07-05T21:49:48.433Z,50.99
2017-07-05T21:52:15.877Z,51.21
2017-07-05T21:54:43.325Z,51.33
2017-07-05T21:57:10.782Z,51.30
2017-07-05T21:59:38.183Z,50.70
2017-07-05T22:02:05.595Z,50.94
2017-07-05T22:04:33.060Z,51.92
2017-07-05T22:07:00.516Z,52.76
2017-07-05T22:09:27.915Z,52.81
2017-07-05T22:11:55.465Z,52.87
2017-07-05T22:14:22.937Z,53.10
2017-07-05T22:16:50.388Z,52.36
2017-07-05T22:19:17.841Z,53.10
2017-07-05T22:21:45.272Z,53.16
2017-07-05T22:24:12.729Z,53.70
2017-07-05T22:26:40.149Z,53.32
2017-07-05T22:29:07.570Z,53.27
2017-07-05T22:31:35.021Z,53.25
2017-07-05T22:34:02.462Z,53.33
2017-07-05T22:36:29.982Z,53.47
2017-07-05T22:38:57.461Z,53.75
2017-07-05T22:41:24.929Z,53.70
2017-07-05T22:43:52.351Z,53.90
2017-07-05T22:46:19.776Z,53.70
2017-07-05T22:48:47.185Z,53.87
2017-07-05T22:51:14.641Z,55.08
2017-07-05T22:53:42.073Z,54.50
2017-07-05T22:56:09.628Z,54.89
2017-07-05T22:58:37.042Z,54.47
2017-07-05T23:01:04.456Z,54.13
2017-07-05T23:03:31.894Z,54.46
2017-07-05T23:05:59.301Z,54.38
2017-07-05T23:08:26.753Z,55.31
2017-07-05T23:10:54.208Z,55.09
2017-07-05T23:13:21.761Z,55.26
2017-07-05T23:15:49.160Z,55.53
2017-07-05T23:18:16.575Z,55.91
2017-07-05T23:20:44.041Z,56.13
2017-07-05T23:23:11.488Z,55.77
2017-07-05T23:25:38.893Z,55.62
2017-07-05T23:28:06.394Z,55.71
2017-07-05T23:30:33.824Z,55.67
2017-07-05T23:33:01.269Z,55.41
2017-07-05T23:35:28.682Z,55.29
2017-07-05T23:37:56.107Z,55.48
2017-07-05T23:40:23.549Z,55.67
2017-07-05T23:42:50.960Z,55.57
2017-07-05T23:45:18.425Z,55.90
2017-07-05T23:47:45.944Z,55.82
2017-07-05T23:50:13.377Z,56.17
2017-07-05T23:52:40.855Z,56.64
2017-07-05T23:55:08.262Z,56.99
2017-07-05T23:57:35.672Z,57.10
